This is the latest recevied weather packets stored in our database for station/object K6MBY. If no packets are shown the sender has not sent any weather packets the latest 10 day(s).
| Time | Temp. | Humidity | Pressure | Rain* | Wind** | Luminosity | Snow |
|---|---|---|---|---|---|---|---|
| 1777807939 | 16.11° C | 58% | 1018.4 hPa | 0 mm | - | 0 W/m² | - |
| 1777807636 | 15.56° C | 57% | 1018.5 hPa | 0 mm | - | 0 W/m² | - |
| 1777807334 | 16.11° C | 57% | 1018.4 hPa | 0 mm | - | 0 W/m² | - |
| 1777807029 | 16.11° C | 56% | 1018.4 hPa | 0 mm | - | 0 W/m² | - |
| 1777806726 | 16.67° C | 56% | 1018.6 hPa | 0 mm | - | 0 W/m² | - |
| 1777806422 | 16.67° C | 55% | 1018.5 hPa | 0 mm | - | 0 W/m² | - |
| 1777806119 | 15° C | 62% | 1018.4 hPa | 0 mm | - | 0 W/m² | - |
| 1777805815 | 14.44° C | 64% | 1018.4 hPa | 0 mm | - | 0 W/m² | - |
| 1777805513 | 13.89° C | 67% | 1018.3 hPa | 0 mm | - | 0 W/m² | - |
| 1777805211 | 13.89° C | 69% | 1018.2 hPa | 0 mm | - | 0 W/m² | - |
| 1777804909 | 13.89° C | 68% | 1018.5 hPa | 0 mm | - | 0 W/m² | - |
| 1777804606 | 14.44° C | 66% | 1018.5 hPa | 0 mm | - | 0 W/m² | - |
| 1777804304 | 14.44° C | 63% | 1018.3 hPa | 0 mm | - | 0 W/m² | - |
| 1777804001 | 13.89° C | 66% | 1018.3 hPa | 0 mm | - | 0 W/m² | - |
| 1777803697 | 14.44° C | 65% | 1018.3 hPa | 0 mm | - | 0 W/m² | - |
| 1777803393 | 15° C | 63% | 1018.3 hPa | 0 mm | - | 0 W/m² | - |
| 1777803091 | 16.11° C | 60% | 1018.3 hPa | 0 mm | - | 0 W/m² | - |
| 1777802788 | 16.67° C | 56% | 1018.1 hPa | 0 mm | - | 0 W/m² | - |
| 1777802486 | 16.67° C | 55% | 1018.2 hPa | 0 mm | - | 0 W/m² | - |
| 1777802183 | 17.22° C | 54% | 1018.1 hPa | 0 mm | - | 0 W/m² | - |
| 1777801882 | 17.78° C | 52% | 1018.2 hPa | 0 mm | - | 0 W/m² | - |
| 1777801578 | 17.22° C | 52% | 1018.1 hPa | 0 mm | - | 0 W/m² | - |
| 1777801275 | 17.22° C | 52% | 1018.2 hPa | 0 mm | - | 0 W/m² | - |
| 1777800971 | 17.78° C | 51% | 1018.1 hPa | 0 mm | - | 0 W/m² | - |
| 1777800669 | 17.78° C | 51% | 1018 hPa | 0 mm | - | 0 W/m² | - |
* Rain latest hour (hover to see other rain measurements)
** Current wind speed in m/s (hover to see current wind gust speed)